sensor_id;sensor_type;location;lat;lon;timestamp;P1;durP1;ratioP1;P2;durP2;ratioP2
10653;SDS011;5375;51.250;6.776;2023-11-19T00:00:11;1.20;;;0.90;;
10653;SDS011;5375;51.250;6.776;2023-11-19T00:02:38;1.70;;;1.00;;
10653;SDS011;5375;51.250;6.776;2023-11-19T00:05:08;2.43;;;1.10;;
10653;SDS011;5375;51.250;6.776;2023-11-19T00:07:37;2.03;;;1.10;;
10653;SDS011;5375;51.250;6.776;2023-11-19T00:10:07;1.00;;;0.90;;
10653;SDS011;5375;51.250;6.776;2023-11-19T00:12:43;1.77;;;1.03;;
10653;SDS011;5375;51.250;6.776;2023-11-19T00:15:10;1.70;;;0.87;;
10653;SDS011;5375;51.250;6.776;2023-11-19T00:17:42;1.47;;;1.10;;
10653;SDS011;5375;51.250;6.776;2023-11-19T00:20:10;1.20;;;0.83;;
10653;SDS011;5375;51.250;6.776;2023-11-19T00:22:36;1.30;;;0.90;;
10653;SDS011;5375;51.250;6.776;2023-11-19T00:25:02;1.00;;;0.83;;
10653;SDS011;5375;51.250;6.776;2023-11-19T00:27:28;1.10;;;0.90;;
10653;SDS011;5375;51.250;6.776;2023-11-19T00:29:54;1.30;;;0.90;;
10653;SDS011;5375;51.250;6.776;2023-11-19T00:32:20;1.27;;;0.90;;
10653;SDS011;5375;51.250;6.776;2023-11-19T00:34:46;1.00;;;0.90;;
10653;SDS011;5375;51.250;6.776;2023-11-19T00:37:13;1.20;;;0.90;;
10653;SDS011;5375;51.250;6.776;2023-11-19T00:39:39;1.00;;;0.83;;
10653;SDS011;5375;51.250;6.776;2023-11-19T00:42:07;1.10;;;0.80;;
10653;SDS011;5375;51.250;6.776;2023-11-19T00:44:33;1.27;;;0.93;;
10653;SDS011;5375;51.250;6.776;2023-11-19T00:46:59;1.87;;;0.93;;
10653;SDS011;5375;51.250;6.776;2023-11-19T00:49:25;1.87;;;1.20;;
10653;SDS011;5375;51.250;6.776;2023-11-19T00:51:51;1.07;;;0.80;;
10653;SDS011;5375;51.250;6.776;2023-11-19T00:54:17;1.30;;;0.70;;
10653;SDS011;5375;51.250;6.776;2023-11-19T00:56:43;1.70;;;0.70;;
10653;SDS011;5375;51.250;6.776;2023-11-19T00:59:09;2.07;;;0.90;;
10653;SDS011;5375;51.250;6.776;2023-11-19T01:01:35;1.17;;;0.93;;
10653;SDS011;5375;51.250;6.776;2023-11-19T01:04:01;2.53;;;0.77;;
10653;SDS011;5375;51.250;6.776;2023-11-19T01:06:28;1.07;;;0.87;;
10653;SDS011;5375;51.250;6.776;2023-11-19T01:08:55;2.60;;;1.00;;
10653;SDS011;5375;51.250;6.776;2023-11-19T01:11:22;1.00;;;0.80;;
10653;SDS011;5375;51.250;6.776;2023-11-19T01:13:48;0.80;;;0.70;;
10653;SDS011;5375;51.250;6.776;2023-11-19T01:16:14;0.87;;;0.73;;
10653;SDS011;5375;51.250;6.776;2023-11-19T01:18:40;0.77;;;0.70;;
10653;SDS011;5375;51.250;6.776;2023-11-19T01:21:06;0.90;;;0.70;;
10653;SDS011;5375;51.250;6.776;2023-11-19T01:23:32;2.10;;;0.80;;
10653;SDS011;5375;51.250;6.776;2023-11-19T01:25:59;2.80;;;0.90;;
10653;SDS011;5375;51.250;6.776;2023-11-19T01:28:24;1.47;;;1.00;;
10653;SDS011;5375;51.250;6.776;2023-11-19T01:30:50;1.40;;;0.80;;
10653;SDS011;5375;51.250;6.776;2023-11-19T01:33:17;1.07;;;0.77;;
10653;SDS011;5375;51.250;6.776;2023-11-19T01:35:42;0.80;;;0.80;;
10653;SDS011;5375;51.250;6.776;2023-11-19T01:38:08;1.00;;;0.80;;
10653;SDS011;5375;51.250;6.776;2023-11-19T01:40:35;1.07;;;0.60;;
10653;SDS011;5375;51.250;6.776;2023-11-19T01:43:03;0.77;;;0.70;;
10653;SDS011;5375;51.250;6.776;2023-11-19T01:45:30;1.00;;;0.80;;
10653;SDS011;5375;51.250;6.776;2023-11-19T01:47:59;1.30;;;0.80;;
10653;SDS011;5375;51.250;6.776;2023-11-19T01:50:30;1.50;;;0.80;;
10653;SDS011;5375;51.250;6.776;2023-11-19T01:52:58;1.10;;;0.80;;
10653;SDS011;5375;51.250;6.776;2023-11-19T01:55:24;0.57;;;0.50;;
10653;SDS011;5375;51.250;6.776;2023-11-19T01:57:53;1.27;;;0.70;;
10653;SDS011;5375;51.250;6.776;2023-11-19T02:00:24;0.93;;;0.77;;
10653;SDS011;5375;51.250;6.776;2023-11-19T02:02:50;1.23;;;0.80;;
10653;SDS011;5375;51.250;6.776;2023-11-19T02:05:17;1.80;;;0.63;;
10653;SDS011;5375;51.250;6.776;2023-11-19T02:07:43;0.90;;;0.67;;
10653;SDS011;5375;51.250;6.776;2023-11-19T02:10:11;2.70;;;0.80;;
10653;SDS011;5375;51.250;6.776;2023-11-19T02:12:42;2.03;;;0.70;;
10653;SDS011;5375;51.250;6.776;2023-11-19T02:15:08;1.00;;;0.70;;
10653;SDS011;5375;51.250;6.776;2023-11-19T02:17:35;0.83;;;0.80;;
10653;SDS011;5375;51.250;6.776;2023-11-19T02:20:02;0.63;;;0.60;;
10653;SDS011;5375;51.250;6.776;2023-11-19T02:22:31;0.80;;;0.60;;
10653;SDS011;5375;51.250;6.776;2023-11-19T02:24:59;0.97;;;0.63;;
10653;SDS011;5375;51.250;6.776;2023-11-19T02:30:10;1.23;;;0.70;;
10653;SDS011;5375;51.250;6.776;2023-11-19T02:32:36;0.73;;;0.50;;
10653;SDS011;5375;51.250;6.776;2023-11-19T02:35:05;0.97;;;0.63;;
10653;SDS011;5375;51.250;6.776;2023-11-19T02:37:32;1.10;;;0.73;;
10653;SDS011;5375;51.250;6.776;2023-11-19T02:39:58;2.13;;;0.70;;
10653;SDS011;5375;51.250;6.776;2023-11-19T02:42:34;1.00;;;0.60;;
10653;SDS011;5375;51.250;6.776;2023-11-19T02:45:00;1.93;;;0.90;;
10653;SDS011;5375;51.250;6.776;2023-11-19T02:47:27;1.10;;;0.50;;
10653;SDS011;5375;51.250;6.776;2023-11-19T02:49:55;1.53;;;0.70;;
10653;SDS011;5375;51.250;6.776;2023-11-19T02:52:21;1.00;;;0.60;;
10653;SDS011;5375;51.250;6.776;2023-11-19T02:54:47;1.10;;;0.80;;
10653;SDS011;5375;51.250;6.776;2023-11-19T02:57:13;1.63;;;0.57;;
10653;SDS011;5375;51.250;6.776;2023-11-19T02:59:39;0.50;;;0.50;;
10653;SDS011;5375;51.250;6.776;2023-11-19T03:02:08;0.90;;;0.60;;
10653;SDS011;5375;51.250;6.776;2023-11-19T03:04:39;0.80;;;0.50;;
10653;SDS011;5375;51.250;6.776;2023-11-19T03:07:05;0.80;;;0.80;;
10653;SDS011;5375;51.250;6.776;2023-11-19T03:09:32;2.40;;;0.60;;
10653;SDS011;5375;51.250;6.776;2023-11-19T03:12:00;0.60;;;0.60;;
10653;SDS011;5375;51.250;6.776;2023-11-19T03:14:25;0.80;;;0.70;;
10653;SDS011;5375;51.250;6.776;2023-11-19T03:16:51;2.30;;;0.83;;
10653;SDS011;5375;51.250;6.776;2023-11-19T03:19:17;1.80;;;0.50;;
10653;SDS011;5375;51.250;6.776;2023-11-19T03:21:43;0.60;;;0.53;;
10653;SDS011;5375;51.250;6.776;2023-11-19T03:24:10;1.27;;;0.60;;
10653;SDS011;5375;51.250;6.776;2023-11-19T03:26:36;1.13;;;0.67;;
10653;SDS011;5375;51.250;6.776;2023-11-19T03:29:02;0.90;;;0.70;;
10653;SDS011;5375;51.250;6.776;2023-11-19T03:31:28;1.20;;;0.70;;
10653;SDS011;5375;51.250;6.776;2023-11-19T03:33:54;0.80;;;0.77;;
10653;SDS011;5375;51.250;6.776;2023-11-19T03:36:20;0.60;;;0.60;;
10653;SDS011;5375;51.250;6.776;2023-11-19T03:38:46;1.27;;;0.70;;
10653;SDS011;5375;51.250;6.776;2023-11-19T03:41:12;1.60;;;0.60;;
10653;SDS011;5375;51.250;6.776;2023-11-19T03:43:38;1.67;;;0.90;;
10653;SDS011;5375;51.250;6.776;2023-11-19T03:46:04;1.53;;;0.70;;
10653;SDS011;5375;51.250;6.776;2023-11-19T03:48:31;1.43;;;0.80;;
10653;SDS011;5375;51.250;6.776;2023-11-19T03:50:57;0.77;;;0.60;;
10653;SDS011;5375;51.250;6.776;2023-11-19T03:53:23;0.80;;;0.50;;
10653;SDS011;5375;51.250;6.776;2023-11-19T03:55:49;1.07;;;0.70;;
10653;SDS011;5375;51.250;6.776;2023-11-19T03:58:15;1.07;;;0.60;;
10653;SDS011;5375;51.250;6.776;2023-11-19T04:00:41;2.67;;;0.77;;
10653;SDS011;5375;51.250;6.776;2023-11-19T04:03:07;0.93;;;0.80;;
10653;SDS011;5375;51.250;6.776;2023-11-19T04:05:33;1.17;;;0.73;;
10653;SDS011;5375;51.250;6.776;2023-11-19T04:07:59;1.17;;;0.50;;
10653;SDS011;5375;51.250;6.776;2023-11-19T04:10:25;1.73;;;0.87;;
10653;SDS011;5375;51.250;6.776;2023-11-19T04:12:52;1.67;;;0.70;;
10653;SDS011;5375;51.250;6.776;2023-11-19T04:15:18;0.93;;;0.57;;
10653;SDS011;5375;51.250;6.776;2023-11-19T04:17:44;1.90;;;0.60;;
10653;SDS011;5375;51.250;6.776;2023-11-19T04:20:11;2.43;;;0.70;;
10653;SDS011;5375;51.250;6.776;2023-11-19T04:22:38;1.97;;;0.70;;
10653;SDS011;5375;51.250;6.776;2023-11-19T04:25:04;1.60;;;0.67;;
10653;SDS011;5375;51.250;6.776;2023-11-19T04:27:30;1.77;;;0.60;;
10653;SDS011;5375;51.250;6.776;2023-11-19T04:29:56;1.87;;;0.70;;
10653;SDS011;5375;51.250;6.776;2023-11-19T04:32:23;1.27;;;0.70;;
10653;SDS011;5375;51.250;6.776;2023-11-19T04:34:51;1.30;;;0.70;;
10653;SDS011;5375;51.250;6.776;2023-11-19T04:37:17;1.03;;;0.60;;
10653;SDS011;5375;51.250;6.776;2023-11-19T04:39:44;1.33;;;0.43;;
10653;SDS011;5375;51.250;6.776;2023-11-19T04:42:11;2.53;;;0.93;;
10653;SDS011;5375;51.250;6.776;2023-11-19T04:44:37;2.17;;;0.70;;
10653;SDS011;5375;51.250;6.776;2023-11-19T04:47:03;1.27;;;0.87;;
10653;SDS011;5375;51.250;6.776;2023-11-19T04:49:29;1.40;;;0.90;;
10653;SDS011;5375;51.250;6.776;2023-11-19T04:51:55;1.17;;;0.60;;
10653;SDS011;5375;51.250;6.776;2023-11-19T04:54:21;1.10;;;0.63;;
10653;SDS011;5375;51.250;6.776;2023-11-19T04:56:48;1.20;;;0.60;;
10653;SDS011;5375;51.250;6.776;2023-11-19T04:59:14;1.77;;;0.70;;
10653;SDS011;5375;51.250;6.776;2023-11-19T05:01:40;2.47;;;0.77;;
10653;SDS011;5375;51.250;6.776;2023-11-19T05:04:07;2.13;;;0.90;;
10653;SDS011;5375;51.250;6.776;2023-11-19T05:06:42;3.53;;;0.80;;
10653;SDS011;5375;51.250;6.776;2023-11-19T05:09:11;14.83;;;1.43;;
10653;SDS011;5375;51.250;6.776;2023-11-19T05:11:41;2.97;;;1.30;;
10653;SDS011;5375;51.250;6.776;2023-11-19T05:14:10;4.57;;;1.10;;
10653;SDS011;5375;51.250;6.776;2023-11-19T05:16:40;2.13;;;0.90;;
10653;SDS011;5375;51.250;6.776;2023-11-19T05:19:09;2.57;;;0.90;;
10653;SDS011;5375;51.250;6.776;2023-11-19T05:21:41;3.90;;;1.00;;
10653;SDS011;5375;51.250;6.776;2023-11-19T05:24:11;2.57;;;0.70;;
10653;SDS011;5375;51.250;6.776;2023-11-19T05:26:40;2.03;;;1.07;;
10653;SDS011;5375;51.250;6.776;2023-11-19T05:29:10;3.07;;;0.80;;
10653;SDS011;5375;51.250;6.776;2023-11-19T05:31:38;4.53;;;0.90;;
10653;SDS011;5375;51.250;6.776;2023-11-19T05:34:04;2.57;;;1.13;;
10653;SDS011;5375;51.250;6.776;2023-11-19T05:36:29;1.50;;;0.80;;
10653;SDS011;5375;51.250;6.776;2023-11-19T05:38:55;2.63;;;0.87;;
10653;SDS011;5375;51.250;6.776;2023-11-19T05:41:21;3.07;;;0.73;;
10653;SDS011;5375;51.250;6.776;2023-11-19T05:43:47;3.10;;;1.13;;
10653;SDS011;5375;51.250;6.776;2023-11-19T05:46:13;1.73;;;0.80;;
10653;SDS011;5375;51.250;6.776;2023-11-19T05:48:39;3.10;;;1.17;;
10653;SDS011;5375;51.250;6.776;2023-11-19T05:51:05;2.57;;;1.00;;
10653;SDS011;5375;51.250;6.776;2023-11-19T05:53:31;2.37;;;0.83;;
10653;SDS011;5375;51.250;6.776;2023-11-19T05:55:57;3.30;;;1.00;;
10653;SDS011;5375;51.250;6.776;2023-11-19T05:58:24;2.60;;;0.80;;
10653;SDS011;5375;51.250;6.776;2023-11-19T06:00:57;2.70;;;1.00;;
10653;SDS011;5375;51.250;6.776;2023-11-19T06:03:26;3.20;;;0.87;;
10653;SDS011;5375;51.250;6.776;2023-11-19T06:05:52;2.43;;;0.90;;
10653;SDS011;5375;51.250;6.776;2023-11-19T06:08:19;2.30;;;0.93;;
10653;SDS011;5375;51.250;6.776;2023-11-19T06:10:48;3.67;;;1.40;;
10653;SDS011;5375;51.250;6.776;2023-11-19T06:13:16;3.03;;;0.90;;
10653;SDS011;5375;51.250;6.776;2023-11-19T06:15:42;3.13;;;0.97;;
10653;SDS011;5375;51.250;6.776;2023-11-19T06:18:08;6.97;;;1.20;;
10653;SDS011;5375;51.250;6.776;2023-11-19T06:20:35;3.37;;;1.20;;
10653;SDS011;5375;51.250;6.776;2023-11-19T06:23:01;4.87;;;1.20;;
10653;SDS011;5375;51.250;6.776;2023-11-19T06:25:34;4.90;;;1.30;;
10653;SDS011;5375;51.250;6.776;2023-11-19T06:28:00;6.53;;;1.20;;
10653;SDS011;5375;51.250;6.776;2023-11-19T06:30:26;4.40;;;1.13;;
10653;SDS011;5375;51.250;6.776;2023-11-19T06:33:07;8.83;;;1.37;;
10653;SDS011;5375;51.250;6.776;2023-11-19T06:35:40;4.13;;;1.13;;
10653;SDS011;5375;51.250;6.776;2023-11-19T06:38:06;6.30;;;1.23;;
10653;SDS011;5375;51.250;6.776;2023-11-19T06:40:44;5.67;;;1.10;;
10653;SDS011;5375;51.250;6.776;2023-11-19T06:43:10;5.03;;;1.23;;
10653;SDS011;5375;51.250;6.776;2023-11-19T06:45:36;2.83;;;1.00;;
10653;SDS011;5375;51.250;6.776;2023-11-19T06:48:02;5.63;;;1.10;;
10653;SDS011;5375;51.250;6.776;2023-11-19T06:50:31;5.13;;;1.20;;
10653;SDS011;5375;51.250;6.776;2023-11-19T06:52:57;3.97;;;1.20;;
10653;SDS011;5375;51.250;6.776;2023-11-19T06:55:23;3.97;;;1.23;;
10653;SDS011;5375;51.250;6.776;2023-11-19T06:57:48;5.33;;;1.40;;
10653;SDS011;5375;51.250;6.776;2023-11-19T07:00:14;3.67;;;1.00;;
10653;SDS011;5375;51.250;6.776;2023-11-19T07:02:41;4.43;;;1.17;;
10653;SDS011;5375;51.250;6.776;2023-11-19T07:05:09;3.23;;;1.13;;
10653;SDS011;5375;51.250;6.776;2023-11-19T07:07:37;4.47;;;1.40;;
10653;SDS011;5375;51.250;6.776;2023-11-19T07:10:03;3.23;;;1.10;;
10653;SDS011;5375;51.250;6.776;2023-11-19T07:12:30;7.23;;;1.30;;
10653;SDS011;5375;51.250;6.776;2023-11-19T07:14:56;2.80;;;1.00;;
10653;SDS011;5375;51.250;6.776;2023-11-19T07:17:22;4.47;;;1.30;;
10653;SDS011;5375;51.250;6.776;2023-11-19T07:19:49;3.43;;;1.00;;
10653;SDS011;5375;51.250;6.776;2023-11-19T07:22:15;3.20;;;0.90;;
10653;SDS011;5375;51.250;6.776;2023-11-19T07:24:41;3.37;;;1.13;;
10653;SDS011;5375;51.250;6.776;2023-11-19T07:27:08;5.17;;;1.03;;
10653;SDS011;5375;51.250;6.776;2023-11-19T07:29:36;4.17;;;1.13;;
10653;SDS011;5375;51.250;6.776;2023-11-19T07:32:02;2.43;;;0.90;;
10653;SDS011;5375;51.250;6.776;2023-11-19T07:34:27;4.27;;;1.10;;
10653;SDS011;5375;51.250;6.776;2023-11-19T07:36:54;5.20;;;1.00;;
10653;SDS011;5375;51.250;6.776;2023-11-19T07:39:24;3.70;;;1.00;;
10653;SDS011;5375;51.250;6.776;2023-11-19T07:41:50;4.00;;;0.93;;
10653;SDS011;5375;51.250;6.776;2023-11-19T07:44:16;2.17;;;0.90;;
10653;SDS011;5375;51.250;6.776;2023-11-19T07:46:42;2.70;;;1.00;;
10653;SDS011;5375;51.250;6.776;2023-11-19T07:49:10;2.03;;;0.87;;
10653;SDS011;5375;51.250;6.776;2023-11-19T07:51:36;2.87;;;1.10;;
10653;SDS011;5375;51.250;6.776;2023-11-19T07:54:02;4.07;;;1.10;;
10653;SDS011;5375;51.250;6.776;2023-11-19T07:56:29;3.30;;;1.20;;
10653;SDS011;5375;51.250;6.776;2023-11-19T07:58:54;3.53;;;1.23;;
10653;SDS011;5375;51.250;6.776;2023-11-19T08:01:20;8.50;;;1.93;;
10653;SDS011;5375;51.250;6.776;2023-11-19T08:03:48;7.73;;;1.60;;
10653;SDS011;5375;51.250;6.776;2023-11-19T08:06:14;6.27;;;1.70;;
10653;SDS011;5375;51.250;6.776;2023-11-19T08:08:40;5.87;;;1.77;;
10653;SDS011;5375;51.250;6.776;2023-11-19T08:11:06;7.00;;;1.60;;
10653;SDS011;5375;51.250;6.776;2023-11-19T08:13:32;7.80;;;2.00;;
10653;SDS011;5375;51.250;6.776;2023-11-19T08:15:57;6.83;;;2.00;;
10653;SDS011;5375;51.250;6.776;2023-11-19T08:18:24;5.80;;;1.90;;
10653;SDS011;5375;51.250;6.776;2023-11-19T08:20:49;5.75;;;1.90;;
10653;SDS011;5375;51.250;6.776;2023-11-19T08:23:18;8.13;;;2.43;;
10653;SDS011;5375;51.250;6.776;2023-11-19T08:25:44;7.33;;;2.50;;
10653;SDS011;5375;51.250;6.776;2023-11-19T08:28:10;10.90;;;2.50;;
10653;SDS011;5375;51.250;6.776;2023-11-19T08:30:36;8.80;;;2.20;;
10653;SDS011;5375;51.250;6.776;2023-11-19T08:33:02;8.67;;;2.10;;
10653;SDS011;5375;51.250;6.776;2023-11-19T08:35:28;11.87;;;1.67;;
10653;SDS011;5375;51.250;6.776;2023-11-19T08:37:55;9.93;;;2.50;;
10653;SDS011;5375;51.250;6.776;2023-11-19T08:40:22;8.07;;;1.97;;
10653;SDS011;5375;51.250;6.776;2023-11-19T08:42:48;9.00;;;2.33;;
10653;SDS011;5375;51.250;6.776;2023-11-19T08:45:13;8.90;;;2.03;;
10653;SDS011;5375;51.250;6.776;2023-11-19T08:47:39;10.83;;;2.67;;
10653;SDS011;5375;51.250;6.776;2023-11-19T08:50:06;8.27;;;2.37;;
10653;SDS011;5375;51.250;6.776;2023-11-19T08:52:33;10.87;;;3.00;;
10653;SDS011;5375;51.250;6.776;2023-11-19T08:54:59;9.43;;;2.20;;
10653;SDS011;5375;51.250;6.776;2023-11-19T08:57:25;8.30;;;2.30;;
10653;SDS011;5375;51.250;6.776;2023-11-19T08:59:51;9.13;;;2.17;;
10653;SDS011;5375;51.250;6.776;2023-11-19T09:02:17;7.30;;;1.97;;
10653;SDS011;5375;51.250;6.776;2023-11-19T09:04:43;9.13;;;2.43;;
10653;SDS011;5375;51.250;6.776;2023-11-19T09:07:09;7.50;;;2.10;;
10653;SDS011;5375;51.250;6.776;2023-11-19T09:09:35;10.50;;;2.17;;
10653;SDS011;5375;51.250;6.776;2023-11-19T09:12:02;8.47;;;2.30;;
10653;SDS011;5375;51.250;6.776;2023-11-19T09:14:29;6.57;;;2.47;;
10653;SDS011;5375;51.250;6.776;2023-11-19T09:16:55;10.87;;;2.73;;
10653;SDS011;5375;51.250;6.776;2023-11-19T09:19:21;8.47;;;2.50;;
10653;SDS011;5375;51.250;6.776;2023-11-19T09:21:47;13.23;;;2.63;;
10653;SDS011;5375;51.250;6.776;2023-11-19T09:24:14;9.97;;;2.10;;
10653;SDS011;5375;51.250;6.776;2023-11-19T09:26:40;6.90;;;2.00;;
10653;SDS011;5375;51.250;6.776;2023-11-19T09:29:07;13.27;;;2.60;;
10653;SDS011;5375;51.250;6.776;2023-11-19T09:31:34;13.00;;;2.90;;
10653;SDS011;5375;51.250;6.776;2023-11-19T09:34:00;7.20;;;1.93;;
10653;SDS011;5375;51.250;6.776;2023-11-19T09:36:27;12.27;;;2.87;;
10653;SDS011;5375;51.250;6.776;2023-11-19T09:38:53;9.97;;;2.60;;
10653;SDS011;5375;51.250;6.776;2023-11-19T09:41:19;12.27;;;2.20;;
10653;SDS011;5375;51.250;6.776;2023-11-19T09:43:45;7.70;;;2.30;;
10653;SDS011;5375;51.250;6.776;2023-11-19T09:46:12;8.77;;;2.60;;
10653;SDS011;5375;51.250;6.776;2023-11-19T09:48:40;11.70;;;2.13;;
10653;SDS011;5375;51.250;6.776;2023-11-19T09:51:07;9.80;;;2.57;;
10653;SDS011;5375;51.250;6.776;2023-11-19T09:53:34;9.40;;;2.33;;
10653;SDS011;5375;51.250;6.776;2023-11-19T09:56:03;7.93;;;2.17;;
10653;SDS011;5375;51.250;6.776;2023-11-19T09:58:30;6.47;;;2.00;;
10653;SDS011;5375;51.250;6.776;2023-11-19T10:00:56;8.00;;;2.10;;
10653;SDS011;5375;51.250;6.776;2023-11-19T10:03:27;8.87;;;1.93;;
10653;SDS011;5375;51.250;6.776;2023-11-19T10:05:58;9.60;;;2.43;;
10653;SDS011;5375;51.250;6.776;2023-11-19T10:08:25;7.33;;;2.23;;
10653;SDS011;5375;51.250;6.776;2023-11-19T10:10:51;6.83;;;2.27;;
10653;SDS011;5375;51.250;6.776;2023-11-19T10:13:17;7.83;;;2.27;;
10653;SDS011;5375;51.250;6.776;2023-11-19T10:15:45;8.23;;;2.60;;
10653;SDS011;5375;51.250;6.776;2023-11-19T10:18:13;8.03;;;2.10;;
10653;SDS011;5375;51.250;6.776;2023-11-19T10:20:40;9.23;;;2.13;;
10653;SDS011;5375;51.250;6.776;2023-11-19T10:23:09;10.37;;;2.00;;
10653;SDS011;5375;51.250;6.776;2023-11-19T10:25:36;8.40;;;1.80;;
10653;SDS011;5375;51.250;6.776;2023-11-19T10:28:02;8.10;;;2.20;;
10653;SDS011;5375;51.250;6.776;2023-11-19T10:30:28;7.53;;;2.27;;
10653;SDS011;5375;51.250;6.776;2023-11-19T10:35:51;7.57;;;2.53;;
10653;SDS011;5375;51.250;6.776;2023-11-19T10:38:27;8.03;;;2.20;;
10653;SDS011;5375;51.250;6.776;2023-11-19T10:40:54;8.77;;;2.47;;
10653;SDS011;5375;51.250;6.776;2023-11-19T10:43:20;7.60;;;2.07;;
10653;SDS011;5375;51.250;6.776;2023-11-19T10:45:50;7.80;;;2.33;;
10653;SDS011;5375;51.250;6.776;2023-11-19T10:48:17;9.00;;;2.57;;
10653;SDS011;5375;51.250;6.776;2023-11-19T10:50:44;5.70;;;1.90;;
10653;SDS011;5375;51.250;6.776;2023-11-19T10:53:11;7.13;;;2.20;;
10653;SDS011;5375;51.250;6.776;2023-11-19T10:55:40;5.43;;;1.87;;
10653;SDS011;5375;51.250;6.776;2023-11-19T10:58:07;6.90;;;2.13;;
10653;SDS011;5375;51.250;6.776;2023-11-19T11:06:33;15.77;;;2.50;;
10653;SDS011;5375;51.250;6.776;2023-11-19T11:08:59;6.20;;;2.20;;
10653;SDS011;5375;51.250;6.776;2023-11-19T11:11:26;7.27;;;2.30;;
10653;SDS011;5375;51.250;6.776;2023-11-19T11:13:52;5.43;;;1.77;;
10653;SDS011;5375;51.250;6.776;2023-11-19T11:16:19;7.87;;;2.60;;
10653;SDS011;5375;51.250;6.776;2023-11-19T11:18:46;8.90;;;2.40;;
10653;SDS011;5375;51.250;6.776;2023-11-19T11:21:15;9.43;;;2.20;;
10653;SDS011;5375;51.250;6.776;2023-11-19T11:23:47;5.77;;;1.67;;
10653;SDS011;5375;51.250;6.776;2023-11-19T11:36:54;6.07;;;1.93;;
10653;SDS011;5375;51.250;6.776;2023-11-19T11:39:28;6.73;;;1.80;;
10653;SDS011;5375;51.250;6.776;2023-11-19T11:42:38;6.63;;;2.00;;
10653;SDS011;5375;51.250;6.776;2023-11-19T11:55:24;6.87;;;1.80;;
10653;SDS011;5375;51.250;6.776;2023-11-19T11:57:54;6.43;;;2.03;;
10653;SDS011;5375;51.250;6.776;2023-11-19T12:00:26;7.27;;;2.13;;
10653;SDS011;5375;51.250;6.776;2023-11-19T12:03:01;6.60;;;2.10;;
10653;SDS011;5375;51.250;6.776;2023-11-19T12:05:27;5.03;;;1.73;;
10653;SDS011;5375;51.250;6.776;2023-11-19T12:10:26;4.47;;;1.60;;
10653;SDS011;5375;51.250;6.776;2023-11-19T12:12:59;6.73;;;1.90;;
10653;SDS011;5375;51.250;6.776;2023-11-19T12:15:25;5.67;;;1.90;;
10653;SDS011;5375;51.250;6.776;2023-11-19T12:17:52;7.57;;;1.93;;
10653;SDS011;5375;51.250;6.776;2023-11-19T12:20:20;9.37;;;2.53;;
10653;SDS011;5375;51.250;6.776;2023-11-19T12:22:47;5.60;;;1.93;;
10653;SDS011;5375;51.250;6.776;2023-11-19T12:25:14;5.60;;;2.03;;
10653;SDS011;5375;51.250;6.776;2023-11-19T12:27:48;4.40;;;1.40;;
10653;SDS011;5375;51.250;6.776;2023-11-19T12:32:50;8.00;;;2.17;;
10653;SDS011;5375;51.250;6.776;2023-11-19T12:35:18;4.67;;;1.60;;
10653;SDS011;5375;51.250;6.776;2023-11-19T12:37:48;6.30;;;1.80;;
10653;SDS011;5375;51.250;6.776;2023-11-19T12:40:16;5.93;;;1.57;;
10653;SDS011;5375;51.250;6.776;2023-11-19T12:42:50;6.03;;;1.70;;
10653;SDS011;5375;51.250;6.776;2023-11-19T12:45:17;3.57;;;1.30;;
10653;SDS011;5375;51.250;6.776;2023-11-19T12:47:45;6.90;;;1.70;;
10653;SDS011;5375;51.250;6.776;2023-11-19T12:50:14;3.57;;;1.63;;
10653;SDS011;5375;51.250;6.776;2023-11-19T12:52:43;3.77;;;1.50;;
10653;SDS011;5375;51.250;6.776;2023-11-19T12:55:30;7.37;;;1.90;;
10653;SDS011;5375;51.250;6.776;2023-11-19T12:57:57;5.60;;;1.50;;
10653;SDS011;5375;51.250;6.776;2023-11-19T13:00:24;4.53;;;1.70;;
10653;SDS011;5375;51.250;6.776;2023-11-19T13:02:52;7.57;;;1.83;;
10653;SDS011;5375;51.250;6.776;2023-11-19T13:08:13;7.37;;;1.73;;
10653;SDS011;5375;51.250;6.776;2023-11-19T13:13:13;7.00;;;2.00;;
10653;SDS011;5375;51.250;6.776;2023-11-19T13:15:39;3.57;;;1.37;;
10653;SDS011;5375;51.250;6.776;2023-11-19T13:18:05;3.53;;;1.60;;
10653;SDS011;5375;51.250;6.776;2023-11-19T13:20:31;6.43;;;1.90;;
10653;SDS011;5375;51.250;6.776;2023-11-19T13:22:59;6.27;;;1.70;;
10653;SDS011;5375;51.250;6.776;2023-11-19T13:25:26;4.37;;;1.60;;
10653;SDS011;5375;51.250;6.776;2023-11-19T13:27:52;5.17;;;1.80;;
10653;SDS011;5375;51.250;6.776;2023-11-19T13:30:18;4.07;;;1.60;;
10653;SDS011;5375;51.250;6.776;2023-11-19T13:32:44;3.97;;;1.60;;
10653;SDS011;5375;51.250;6.776;2023-11-19T13:35:11;5.77;;;2.07;;
10653;SDS011;5375;51.250;6.776;2023-11-19T13:37:37;4.43;;;1.30;;
10653;SDS011;5375;51.250;6.776;2023-11-19T13:40:04;4.23;;;1.47;;
10653;SDS011;5375;51.250;6.776;2023-11-19T13:42:31;4.07;;;1.30;;
10653;SDS011;5375;51.250;6.776;2023-11-19T13:44:57;3.40;;;1.47;;
10653;SDS011;5375;51.250;6.776;2023-11-19T13:47:23;4.53;;;1.57;;
10653;SDS011;5375;51.250;6.776;2023-11-19T13:49:49;5.53;;;1.60;;
10653;SDS011;5375;51.250;6.776;2023-11-19T13:52:15;4.07;;;1.43;;
10653;SDS011;5375;51.250;6.776;2023-11-19T13:54:41;5.43;;;1.70;;
10653;SDS011;5375;51.250;6.776;2023-11-19T13:57:07;6.07;;;1.87;;
10653;SDS011;5375;51.250;6.776;2023-11-19T13:59:34;4.23;;;1.60;;
10653;SDS011;5375;51.250;6.776;2023-11-19T14:02:05;3.90;;;1.50;;
10653;SDS011;5375;51.250;6.776;2023-11-19T14:04:32;11.83;;;1.83;;
10653;SDS011;5375;51.250;6.776;2023-11-19T14:06:58;5.07;;;1.70;;
10653;SDS011;5375;51.250;6.776;2023-11-19T14:09:24;6.70;;;1.63;;
10653;SDS011;5375;51.250;6.776;2023-11-19T14:11:50;11.30;;;1.80;;
10653;SDS011;5375;51.250;6.776;2023-11-19T14:14:16;5.53;;;1.50;;
10653;SDS011;5375;51.250;6.776;2023-11-19T14:16:43;5.80;;;1.43;;
10653;SDS011;5375;51.250;6.776;2023-11-19T14:19:09;5.60;;;1.60;;
10653;SDS011;5375;51.250;6.776;2023-11-19T14:21:35;8.83;;;2.47;;
10653;SDS011;5375;51.250;6.776;2023-11-19T14:24:01;8.07;;;1.50;;
10653;SDS011;5375;51.250;6.776;2023-11-19T14:26:27;4.07;;;1.33;;
10653;SDS011;5375;51.250;6.776;2023-11-19T14:28:53;7.67;;;1.87;;
10653;SDS011;5375;51.250;6.776;2023-11-19T14:31:19;3.77;;;1.50;;
10653;SDS011;5375;51.250;6.776;2023-11-19T14:33:45;6.47;;;1.50;;
10653;SDS011;5375;51.250;6.776;2023-11-19T14:36:11;5.33;;;1.70;;
10653;SDS011;5375;51.250;6.776;2023-11-19T14:38:36;4.23;;;1.30;;
10653;SDS011;5375;51.250;6.776;2023-11-19T14:41:02;3.87;;;1.77;;
10653;SDS011;5375;51.250;6.776;2023-11-19T14:43:29;4.87;;;1.60;;
10653;SDS011;5375;51.250;6.776;2023-11-19T14:45:56;6.07;;;1.60;;
10653;SDS011;5375;51.250;6.776;2023-11-19T14:48:22;4.07;;;1.63;;
10653;SDS011;5375;51.250;6.776;2023-11-19T14:50:48;6.47;;;1.20;;
10653;SDS011;5375;51.250;6.776;2023-11-19T14:53:15;4.90;;;1.50;;
10653;SDS011;5375;51.250;6.776;2023-11-19T14:55:41;2.73;;;1.17;;
10653;SDS011;5375;51.250;6.776;2023-11-19T14:58:07;7.43;;;1.73;;
10653;SDS011;5375;51.250;6.776;2023-11-19T15:00:32;4.97;;;1.50;;
10653;SDS011;5375;51.250;6.776;2023-11-19T15:02:58;6.27;;;2.23;;
10653;SDS011;5375;51.250;6.776;2023-11-19T15:05:24;4.90;;;1.70;;
10653;SDS011;5375;51.250;6.776;2023-11-19T15:07:54;3.60;;;1.67;;
10653;SDS011;5375;51.250;6.776;2023-11-19T15:10:20;4.97;;;1.50;;
10653;SDS011;5375;51.250;6.776;2023-11-19T15:12:46;7.80;;;1.70;;
10653;SDS011;5375;51.250;6.776;2023-11-19T15:15:12;4.97;;;1.57;;
10653;SDS011;5375;51.250;6.776;2023-11-19T15:17:38;3.87;;;1.60;;
10653;SDS011;5375;51.250;6.776;2023-11-19T15:20:04;5.23;;;1.67;;
10653;SDS011;5375;51.250;6.776;2023-11-19T15:22:31;4.57;;;1.80;;
10653;SDS011;5375;51.250;6.776;2023-11-19T15:24:57;4.00;;;1.50;;
10653;SDS011;5375;51.250;6.776;2023-11-19T15:27:23;5.43;;;1.40;;
10653;SDS011;5375;51.250;6.776;2023-11-19T15:29:49;3.47;;;1.20;;
10653;SDS011;5375;51.250;6.776;2023-11-19T15:32:15;5.23;;;1.33;;
10653;SDS011;5375;51.250;6.776;2023-11-19T15:34:41;4.40;;;1.80;;
10653;SDS011;5375;51.250;6.776;2023-11-19T15:37:07;4.40;;;1.30;;
10653;SDS011;5375;51.250;6.776;2023-11-19T15:39:33;3.53;;;1.33;;
10653;SDS011;5375;51.250;6.776;2023-11-19T15:42:01;4.30;;;1.50;;